Track Живов Александр

Time Latitude Longitude Accuracy (66% radius in meters) Altitude (meters) Speed (km/hour) Bearing (degrees) Battery (%) GPS flag
09:04:49 56.990357 39.410511 1.5 184.30000305176 1.0299999713898 345.322265625 3 1 delete
09:04:44 56.990315 39.410534 1.5 183.39999389648 0.96999996900558 354.50134277344 3 1 delete
09:04:34 56.990213 39.410569 2 182.39999389648 0.95999997854233 346.16271972656 4 1 delete
09:04:23 56.990118 39.410619 10.5 182 0.50999999046326 4.4329833984375 4 1 delete
08:54:17 56.990047 39.419110 1.5 169.89999389648 1.1399999856949 246.28601074219 4 1 delete
08:54:12 56.990057 39.419201 1.5 169.10000610352 0.96999996900558 246.25854492188 4 1 delete
08:54:02 56.990090 39.419393 2 168.30000305176 1.1799999475479 248.994140625 4 1 delete
08:53:51 56.990186 39.419450 10.5 176 0.58999997377396 233.44299316406 4 1 delete
08:43:49 56.990719 39.430714 1.5 168.69999694824 1.1200000047684 261.33178710938 7 1 delete
08:43:39 56.990730 39.430892 1.5 168.69999694824 1.039999961853 257.30529785156 7 1 delete
08:43:34 56.990734 39.430983 1.5 168.19999694824 1.1599999666214 273.48266601562 7 1 delete
08:43:28 56.990738 39.431098 2 168.89999389648 1.1399999856949 267.84118652344 7 1 delete
08:43:17 56.990781 39.431275 3.5 167.39999389648 1.0799999237061 213.67309570312 7 1 delete
08:43:06 56.990870 39.431360 14 156.10000610352 1.3199999332428 163.63586425781 7 1 delete
08:33:05 56.993620 39.436592 1 178.69999694824 1.1899999380112 307.43591308594 7 1 delete
08:32:50 56.993523 39.436796 1 179.39999389648 0.9899999499321 309.62768554688 7 1 delete
08:32:40 56.993454 39.436924 1 179.39999389648 1.0599999427795 318.98803710938 7 1 delete
08:32:35 56.993417 39.436979 1 178.89999389648 1.0799999237061 318.47717285156 7 1 delete
08:32:30 56.993380 39.437040 1 179.19999694824 1.0099999904633 326.45874023438 7 1 delete
08:32:20 56.993305 39.437156 1 177.69999694824 1.0199999809265 322.60803222656 7 1 delete
08:32:10 56.993219 39.437271 1 178.39999389648 1.0799999237061 325.11840820312 7 1 delete
08:32:00 56.993147 39.437382 1 176.69999694824 1.0900000333786 327.14538574219 7 1 delete
08:31:50 56.993070 39.437490 1.5 175.69999694824 1.1000000238419 322.38830566406 7 1 delete
08:31:40 56.992990 39.437574 1.5 175.80000305176 1.0699999332428 324.08569335938 7 1 delete
08:31:30 56.992905 39.437685 1.5 175.89999389648 1.1100000143051 332.66052246094 7 1 delete
08:31:25 56.992862 39.437749 1.5 176.10000610352 1.2300000190735 324.20104980469 7 1 delete
08:31:20 56.992823 39.437808 1.5 175.60000610352 1 330.15563964844 7 1 delete
08:31:05 56.992729 39.437959 3.5 171.60000610352 0 0 7 1 delete
08:30:59 56.992635 39.437982 12 175.69999694824 1.5199999809265 316.12609863281 7 1 delete
08:20:52 56.990839 39.448118 1 183.10000610352 1.0699999332428 279.75036621094 13 1 delete
08:20:47 56.990833 39.448199 1 183.89999389648 1.0099999904633 284.90295410156 13 1 delete
08:20:42 56.990826 39.448301 1 183.39999389648 1.1200000047684 279.71740722656 13 1 delete
08:20:32 56.990815 39.448483 1.5 183.19999694824 1.1399999856949 270.966796875 13 1 delete
08:20:22 56.990804 39.448649 1.5 183.5 1.0199999809265 287.31994628906 13 1 delete
08:20:12 56.990781 39.448818 1.5 184.10000610352 0.94999998807907 281.05224609375 13 1 delete
08:20:02 56.990761 39.448986 1.5 183.5 0.85999995470047 275.30090332031 13 1 delete
08:19:52 56.990745 39.449185 2 183.30000305176 1.039999961853 287.73193359375 13 1 delete
08:19:41 56.990766 39.449372 7.5 185.69999694824 0.83999997377396 274.86145019531 13 1 delete
08:19:36 56.990938 39.449511 11 192.60000610352 1.2400000095367 294.33471679688 13 1 delete
08:09:29 56.986357 39.454848 1.5 176.80000305176 1.1699999570847 13.101196289062 13 1 delete
08:09:19 56.986258 39.454799 1.5 176.80000305176 1.2400000095367 9.2779541015625 13 1 delete
08:09:09 56.986147 39.454739 4 179.39999389648 1.2099999189377 21.286010742188 13 1 delete
08:09:03 56.986222 39.454456 17.5 164.89999389648 1.5499999523163 14.051513671875 13 1 delete
07:58:59 56.980854 39.448998 2 183 1.1799999475479 35.326538085938 18 1 delete
07:58:49 56.980767 39.448889 1.5 181.80000305176 1.1599999666214 39.907836914062 18 1 delete
07:58:39 56.980677 39.448755 1.5 182.60000610352 1.1799999475479 33.167724609375 18 1 delete
07:58:34 56.980630 39.448701 1.5 182.80000305176 1.2599999904633 38.655395507812 18 1 delete
07:58:29 56.980585 39.448655 1.5 183 1.1899999380112 30.953979492188 18 1 delete
07:58:19 56.980500 39.448555 2.5 182.69999694824 1.2699999809265 19.039306640625 18 1 delete
07:58:07 56.980412 39.448385 7.5 187.30000305176 0.76999998092651 359.10461425781 18 1 delete